Time;durP1;ratioP1;P1;durP2;ratioP2;P2;SDS_P1;SDS_P2;PMS_P1;PMS_P2;Temp;Humidity;BMP_temperature;BMP_pressure;BME280_temperature;BME280_humidity;BME280_pressure;Samples;Min_cycle;Max_cycle;Signal;HPM_P1;HPM_P2
2022/04/29 00:00:51;;;;;;;48.15;31.50;;;5.40;99.90;;;;;;5013642;28;20109;-76
2022/04/29 00:03:18;;;;;;;45.83;31.45;;;5.40;99.90;;;;;;4983874;28;20085;-76
2022/04/29 00:05:46;;;;;;;38.17;30.20;;;5.40;99.90;;;;;;4985360;28;20138;-75
2022/04/29 00:08:14;;;;;;;40.72;29.55;;;5.40;99.90;;;;;;4973494;28;20049;-76
2022/04/29 00:10:41;;;;;;;37.75;30.23;;;5.50;99.90;;;;;;5001995;28;20096;-76
2022/04/29 00:13:11;;;;;;;42.55;28.20;;;5.60;99.90;;;;;;4991911;28;20046;-75
2022/04/29 00:15:38;;;;;;;34.67;27.48;;;5.60;99.90;;;;;;5016909;28;20045;-75
2022/04/29 00:18:05;;;;;;;34.53;26.27;;;5.60;99.90;;;;;;5001960;28;20050;-76
2022/04/29 00:20:32;;;;;;;39.65;25.75;;;5.70;99.90;;;;;;5002421;28;20057;-76
2022/04/29 00:22:59;;;;;;;34.83;26.05;;;5.80;99.90;;;;;;5000013;28;20050;-76
2022/04/29 00:25:27;;;;;;;38.70;25.25;;;6.00;99.90;;;;;;5016970;28;20065;-76
2022/04/29 00:27:53;;;;;;;35.72;24.02;;;6.20;99.90;;;;;;4992262;28;20050;-75
2022/04/29 00:30:20;;;;;;;36.80;24.65;;;6.20;99.90;;;;;;4983326;28;20054;-76
2022/04/29 00:32:47;;;;;;;32.70;23.88;;;6.20;99.90;;;;;;4983313;28;20528;-75
2022/04/29 00:35:14;;;;;;;39.10;25.88;;;6.20;99.90;;;;;;4985130;28;20441;-76
2022/04/29 00:37:43;;;;;;;29.70;26.30;;;6.20;99.90;;;;;;5018369;28;20139;-76
2022/04/29 00:40:18;;;;;;;36.30;25.65;;;6.10;99.90;;;;;;5002587;28;20077;-76
2022/04/29 00:42:45;;;;;;;32.30;26.60;;;6.00;99.90;;;;;;4994501;28;20117;-77
2022/04/29 00:45:14;;;;;;;30.98;24.10;;;6.00;99.90;;;;;;4985937;28;20057;-76
2022/04/29 00:47:41;;;;;;;29.38;25.25;;;6.00;99.90;;;;;;5002394;28;20054;-76
2022/04/29 00:50:10;;;;;;;32.55;27.63;;;5.90;99.90;;;;;;4998399;28;20492;-78
2022/04/29 00:52:41;;;;;;;34.20;27.70;;;5.90;99.90;;;;;;4996765;28;20061;-76
2022/04/29 00:55:11;;;;;;;29.30;26.13;;;5.80;99.90;;;;;;4983203;28;20093;-76
2022/04/29 00:57:52;;;;;;;39.35;29.13;;;5.70;99.90;;;;;;5003058;28;20141;-75
2022/04/29 01:00:19;;;;;;;30.35;27.17;;;5.60;99.90;;;;;;5003251;28;20046;-75
2022/04/29 01:02:51;;;;;;;40.60;28.60;;;5.70;99.90;;;;;;4987922;28;20501;-75
2022/04/29 01:05:20;;;;;;;30.88;26.73;;;5.70;99.90;;;;;;5002307;28;20129;-75
2022/04/29 01:07:48;;;;;;;30.90;27.45;;;5.60;99.90;;;;;;4998692;28;20836;-75
2022/04/29 01:10:17;;;;;;;35.10;26.48;;;5.60;99.90;;;;;;4985803;28;20062;-76
2022/04/29 01:12:45;;;;;;;33.83;27.30;;;5.70;99.90;;;;;;4997077;28;20551;-75
2022/04/29 01:15:14;;;;;;;27.83;24.63;;;5.60;99.90;;;;;;5000776;28;20049;-77
2022/04/29 01:17:43;;;;;;;36.00;25.02;;;5.60;99.90;;;;;;5018331;28;20665;-76
2022/04/29 01:20:15;;;;;;;30.13;23.98;;;5.70;99.90;;;;;;5012061;28;20050;-76
2022/04/29 01:22:43;;;;;;;33.47;24.85;;;5.70;99.90;;;;;;5015202;28;20081;-76
2022/04/29 01:25:11;;;;;;;33.67;23.80;;;5.70;99.90;;;;;;4996465;28;20113;-77
2022/04/29 01:27:41;;;;;;;26.75;23.88;;;5.70;99.90;;;;;;5017100;28;20048;-77
2022/04/29 01:30:13;;;;;;;30.80;25.60;;;5.80;99.90;;;;;;5016486;28;20472;-76
2022/04/29 01:32:40;;;;;;;38.72;25.73;;;5.70;99.90;;;;;;4984457;28;20050;-76
2022/04/29 01:35:10;;;;;;;28.38;24.40;;;5.80;99.90;;;;;;5000973;28;20068;-76
2022/04/29 01:37:38;;;;;;;34.58;23.75;;;5.80;99.90;;;;;;5002259;28;20053;-76
2022/04/29 01:40:07;;;;;;;28.55;24.15;;;5.70;99.90;;;;;;5001807;28;20520;-77
2022/04/29 01:42:34;;;;;;;33.03;24.15;;;5.70;99.90;;;;;;5001111;28;20042;-76
2022/04/29 01:45:01;;;;;;;34.72;24.35;;;5.70;99.90;;;;;;4985340;28;20516;-76
2022/04/29 01:47:31;;;;;;;29.50;24.20;;;5.70;99.90;;;;;;5006730;28;20053;-76
2022/04/29 01:50:19;;;;;;;27.40;24.65;;;5.70;99.90;;;;;;4995161;28;20096;-77
2022/04/29 01:52:46;;;;;;;36.00;26.08;;;5.70;99.90;;;;;;4984074;28;20557;-76
2022/04/29 01:55:13;;;;;;;30.10;25.63;;;5.60;99.90;;;;;;5003150;28;20065;-76
2022/04/29 01:57:40;;;;;;;27.20;24.52;;;5.60;99.90;;;;;;4989007;28;20628;-76
2022/04/29 02:00:08;;;;;;;30.85;25.00;;;5.60;99.90;;;;;;4983957;28;20057;-75
2022/04/29 02:02:41;;;;;;;38.03;25.25;;;5.50;99.90;;;;;;5000619;28;20081;-76
2022/04/29 02:05:09;;;;;;;37.72;26.85;;;5.60;99.90;;;;;;5001644;28;20092;-76
2022/04/29 02:07:36;;;;;;;29.00;24.58;;;5.50;99.90;;;;;;4990085;28;20592;-76
2022/04/29 02:10:03;;;;;;;31.00;23.02;;;5.50;99.90;;;;;;4982929;28;20062;-76
2022/04/29 02:12:34;;;;;;;29.92;25.02;;;5.50;99.90;;;;;;5008735;28;20136;-76
2022/04/29 02:15:24;;;;;;;44.38;25.15;;;5.40;99.90;;;;;;4986870;28;20130;-76
2022/04/29 02:17:51;;;;;;;34.33;25.25;;;5.40;99.90;;;;;;5001222;28;20144;-76
2022/04/29 02:20:21;;;;;;;34.25;24.80;;;5.30;99.90;;;;;;4985104;28;20041;-77
2022/04/29 02:22:48;;;;;;;30.77;23.63;;;5.40;99.90;;;;;;5011882;28;20153;-76
2022/04/29 02:25:14;;;;;;;28.40;23.38;;;5.40;99.90;;;;;;4999062;28;20042;-76
2022/04/29 02:27:43;;;;;;;28.27;21.80;;;5.60;99.90;;;;;;5001460;28;20060;-77
2022/04/29 02:30:10;;;;;;;27.05;20.88;;;5.50;99.90;;;;;;4987163;28;20648;-76
2022/04/29 02:32:37;;;;;;;25.77;20.80;;;5.60;99.90;;;;;;5001207;28;20084;-76
2022/04/29 02:35:05;;;;;;;26.52;19.10;;;5.60;99.90;;;;;;5016319;28;20096;-76
2022/04/29 02:37:32;;;;;;;31.33;20.58;;;5.40;99.90;;;;;;5001709;28;20073;-76
2022/04/29 02:39:59;;;;;;;30.23;21.27;;;5.30;99.90;;;;;;4999941;28;20038;-76
2022/04/29 02:42:28;;;;;;;28.92;21.25;;;5.20;99.90;;;;;;4991758;28;20052;-76
2022/04/29 02:44:56;;;;;;;31.63;20.90;;;5.20;99.90;;;;;;4990144;28;20480;-76
2022/04/29 02:47:24;;;;;;;25.02;20.92;;;5.10;99.90;;;;;;5000835;28;20050;-75
2022/04/29 02:49:53;;;;;;;31.35;19.30;;;5.20;99.90;;;;;;4999768;28;20038;-76
2022/04/29 02:52:19;;;;;;;26.25;19.05;;;5.40;99.90;;;;;;4990240;28;20092;-76
2022/04/29 02:54:46;;;;;;;23.95;19.25;;;5.60;99.90;;;;;;4999092;28;20049;-76
2022/04/29 02:57:36;;;;;;;26.83;20.30;;;5.60;99.90;;;;;;4981912;28;20069;-75
2022/04/29 03:00:04;;;;;;;24.17;19.27;;;5.80;99.90;;;;;;4980722;28;20046;-76
2022/04/29 03:02:31;;;;;;;23.88;19.92;;;5.70;99.90;;;;;;4981224;28;20054;-76
2022/04/29 03:04:58;;;;;;;29.13;19.63;;;5.80;99.90;;;;;;4982270;28;20107;-76
2022/04/29 03:07:25;;;;;;;22.23;20.00;;;5.80;99.90;;;;;;4981187;28;20434;-75
2022/04/29 03:09:53;;;;;;;25.85;22.40;;;5.80;99.90;;;;;;4981386;28;20050;-76
2022/04/29 03:12:23;;;;;;;27.00;24.20;;;5.60;99.90;;;;;;4979844;28;20111;-76
2022/04/29 03:15:15;;;;;;;29.27;23.83;;;5.40;99.90;;;;;;4995676;28;20054;-76
2022/04/29 03:20:35;;;;;;;25.95;23.38;;;5.10;99.90;;;;;;4997468;23;20677;-70
2022/04/29 03:23:03;;;;;;;28.17;23.05;;;5.00;99.90;;;;;;4988234;28;20400;-69
2022/04/29 03:25:30;;;;;;;28.90;23.70;;;4.90;99.90;;;;;;4969773;28;20046;-70
2022/04/29 03:27:57;;;;;;;31.85;24.75;;;4.80;99.90;;;;;;4971851;28;20191;-70
2022/04/29 03:30:24;;;;;;;26.48;23.60;;;4.80;99.90;;;;;;4956334;28;20073;-69
2022/04/29 03:32:53;;;;;;;32.47;21.25;;;5.00;99.90;;;;;;4969900;28;20066;-70
2022/04/29 03:35:29;;;;;;;33.97;21.48;;;4.90;99.90;;;;;;4973841;28;20160;-69
2022/04/29 03:37:56;;;;;;;27.35;23.02;;;4.90;99.90;;;;;;4971995;28;20038;-69
2022/04/29 03:40:25;;;;;;;24.75;22.15;;;4.90;99.90;;;;;;4971977;28;20034;-70
2022/04/29 03:42:55;;;;;;;31.40;23.88;;;4.80;99.90;;;;;;4967151;28;20046;-70
2022/04/29 03:45:25;;;;;;;29.02;24.10;;;4.80;99.90;;;;;;4958956;28;20054;-73
2022/04/29 03:47:52;;;;;;;32.85;23.98;;;4.70;99.90;;;;;;4888467;29;20081;-70
2022/04/29 03:50:38;;;;;;;28.80;23.05;;;4.60;99.90;;;;;;4899785;28;20050;-70
2022/04/29 03:53:09;;;;;;;29.88;21.90;;;4.60;99.90;;;;;;4956460;28;20076;-70
2022/04/29 03:55:38;;;;;;;30.52;21.52;;;4.60;99.90;;;;;;4973432;28;20050;-70
2022/04/29 03:58:06;;;;;;;30.30;22.58;;;4.60;99.90;;;;;;4974799;28;20047;-70
2022/04/29 04:00:46;;;;;;;31.35;22.38;;;4.60;99.90;;;;;;4973889;28;20121;-70
2022/04/29 04:03:22;;;;;;;26.40;23.02;;;4.50;99.90;;;;;;4974970;28;20046;-69
2022/04/29 04:08:40;;;;;;;25.17;20.25;;;4.40;99.90;;;;;;4975633;28;20242;-71
2022/04/29 04:11:07;;;;;;;26.55;20.10;;;4.40;99.90;;;;;;4974374;28;20077;-70
2022/04/29 04:13:34;;;;;;;25.50;20.08;;;4.50;99.90;;;;;;4957286;28;20162;-69
2022/04/29 04:16:12;;;;;;;26.55;19.60;;;4.60;99.90;;;;;;4974111;28;20528;-70
2022/04/29 04:18:39;;;;;;;22.63;19.17;;;4.60;99.90;;;;;;4973414;28;20073;-70
2022/04/29 04:21:06;;;;;;;31.02;18.90;;;4.60;99.90;;;;;;4975211;28;20073;-70
2022/04/29 04:23:33;;;;;;;28.95;19.70;;;4.60;99.90;;;;;;4971331;28;20288;-70
2022/04/29 04:26:00;;;;;;;23.73;19.10;;;4.70;99.90;;;;;;4973728;28;20133;-70
2022/04/29 04:28:28;;;;;;;26.15;20.20;;;4.70;99.90;;;;;;4959427;28;20436;-71
2022/04/29 04:30:59;;;;;;;23.00;19.90;;;4.70;99.90;;;;;;4974548;28;20043;-70
2022/04/29 04:33:37;;;;;;;26.95;20.17;;;4.70;99.90;;;;;;4972367;28;20061;-70
2022/04/29 04:36:04;;;;;;;34.75;21.35;;;4.90;99.90;;;;;;4974864;28;20073;-71
2022/04/29 04:38:32;;;;;;;23.95;20.65;;;5.00;99.90;;;;;;4959887;28;20124;-71
2022/04/29 04:41:04;;;;;;;24.50;21.52;;;5.10;99.90;;;;;;4956910;28;20512;-71
2022/04/29 04:43:31;;;;;;;24.17;21.50;;;5.00;99.90;;;;;;4972902;28;20038;-71
2022/04/29 04:46:01;;;;;;;26.00;22.50;;;5.00;99.90;;;;;;4938571;28;20062;-71
2022/04/29 04:48:28;;;;;;;30.48;21.70;;;5.10;99.90;;;;;;4876832;29;20057;-71
2022/04/29 04:51:14;;;;;;;26.23;22.27;;;5.30;99.90;;;;;;4934175;28;20046;-71
2022/04/29 04:53:46;;;;;;;24.10;21.70;;;5.40;99.90;;;;;;4974647;28;20052;-71
2022/04/29 04:56:13;;;;;;;24.85;22.33;;;5.50;99.90;;;;;;4973544;28;20054;-71
2022/04/29 04:58:40;;;;;;;26.63;23.38;;;5.50;99.90;;;;;;4973725;28;20053;-71
2022/04/29 05:01:06;;;;;;;28.38;23.85;;;5.30;99.90;;;;;;4974304;28;20049;-71
2022/04/29 05:03:52;;;;;;;25.40;22.70;;;5.20;99.90;;;;;;4976064;28;20353;-71
2022/04/29 05:06:57;;;;;;;26.08;23.42;;;5.40;99.90;;;;;;4975677;28;20047;-71
2022/04/29 05:09:24;;;;;;;25.85;23.13;;;5.50;99.90;;;;;;4974843;28;20574;-71
2022/04/29 05:11:51;;;;;;;25.58;23.17;;;5.50;99.90;;;;;;4900600;28;20056;-71
2022/04/29 05:14:48;;;;;;;26.40;23.52;;;5.60;99.90;;;;;;4890592;28;20037;-71
2022/04/29 05:17:15;;;;;;;24.52;21.90;;;5.60;99.90;;;;;;4950391;28;20082;-71
2022/04/29 05:20:12;;;;;;;;;;;5.60;99.90;;;;;;4974159;28;20050;-71
2022/04/29 05:22:45;;;;;;;25.25;21.90;;;5.90;99.90;;;;;;4971662;28;20964;-71
2022/04/29 05:25:12;;;;;;;24.50;22.27;;;6.10;99.90;;;;;;4968457;28;20057;-71
2022/04/29 05:27:57;;;;;;;26.58;24.02;;;6.30;99.90;;;;;;4976260;28;20077;-70
2022/04/29 05:30:43;;;;;;;30.45;24.00;;;6.40;99.90;;;;;;4954765;28;20496;-70
2022/04/29 05:33:16;;;;;;;25.27;23.30;;;6.60;99.90;;;;;;4955563;28;20043;-70
2022/04/29 05:36:03;;;;;;;26.40;24.02;;;6.70;99.90;;;;;;4974153;28;20050;-70
2022/04/29 05:44:34;;;;;;;26.98;24.23;;;6.90;99.90;;;;;;4970943;28;20061;-70
2022/04/29 05:47:02;;;;;;;27.35;24.73;;;6.90;99.90;;;;;;4905491;28;20079;-70
2022/04/29 05:49:29;;;;;;;27.10;24.70;;;7.10;99.90;;;;;;4882919;29;20152;-70
2022/04/29 05:51:59;;;;;;;27.55;24.73;;;7.20;99.90;;;;;;4949164;28;20412;-70
2022/04/29 05:54:25;;;;;;;28.92;26.42;;;7.30;99.90;;;;;;4970510;28;20042;-70
2022/04/29 05:56:54;;;;;;;28.60;25.70;;;7.30;99.90;;;;;;4970863;28;20105;-70
2022/04/29 05:59:21;;;;;;;28.67;25.85;;;7.40;99.90;;;;;;4971763;28;20053;-70
2022/04/29 06:02:18;;;;;;;28.05;25.85;;;7.60;99.90;;;;;;4875483;28;20057;-70
2022/04/29 06:05:14;;;;;;;26.10;23.90;;;7.80;99.90;;;;;;4882297;28;20053;-71
2022/04/29 06:07:43;;;;;;;25.58;23.33;;;7.80;99.90;;;;;;4972912;28;20461;-70
2022/04/29 06:10:17;;;;;;;26.92;24.42;;;7.90;99.90;;;;;;4971029;28;20047;-70
2022/04/29 06:12:43;;;;;;;29.17;26.60;;;8.00;99.90;;;;;;4973752;28;20053;-72
2022/04/29 06:15:18;;;;;;;28.08;25.50;;;8.00;99.90;;;;;;4962955;28;20068;-72
2022/04/29 06:18:04;;;;;;;28.17;25.10;;;8.20;99.90;;;;;;4892453;28;20350;-71
2022/04/29 06:20:57;;;;;;;27.02;24.70;;;8.30;99.90;;;;;;4915292;28;20216;-72
2022/04/29 06:23:29;;;;;;;27.60;25.15;;;8.30;99.90;;;;;;4972837;28;20360;-70
2022/04/29 06:25:57;;;;;;;27.85;25.20;;;8.30;99.90;;;;;;4954942;28;20094;-71
2022/04/29 06:28:28;;;;;;;28.00;25.35;;;8.70;99.90;;;;;;4957134;28;20074;-70
2022/04/29 06:30:54;;;;;;;27.60;24.95;;;9.00;99.90;;;;;;4971031;28;20046;-70
2022/04/29 06:33:41;;;;;;;27.40;25.17;;;9.00;99.90;;;;;;4955945;28;20476;-70
2022/04/29 06:36:12;;;;;;;27.65;25.27;;;9.10;99.90;;;;;;4970255;28;20054;-70
2022/04/29 06:38:41;;;;;;;29.58;26.60;;;9.40;99.90;;;;;;4971827;28;20533;-70
2022/04/29 06:41:28;;;;;;;28.25;26.08;;;9.70;99.90;;;;;;4972189;28;20050;-71
2022/04/29 06:43:59;;;;;;;31.33;28.40;;;9.90;99.90;;;;;;4969486;28;20644;-71
2022/04/29 06:46:41;;;;;;;28.73;25.80;;;10.10;99.90;;;;;;4969798;28;20142;-71
2022/04/29 06:49:27;;;;;;;28.20;25.55;;;10.40;99.90;;;;;;4972784;28;20145;-71
2022/04/29 06:52:12;;;;;;;;;;;10.20;99.90;;;;;;4983107;28;20164;-70
2022/04/29 06:55:12;;;;;;;29.98;27.67;;;10.20;99.90;;;;;;4957942;28;19933;-70
2022/04/29 06:57:39;;;;;;;29.23;26.83;;;10.00;99.90;;;;;;4972212;28;20190;-73
2022/04/29 07:00:08;;;;;;;30.05;27.45;;;9.90;99.90;;;;;;4972538;28;20643;-70
2022/04/29 07:02:35;;;;;;;29.27;26.77;;;10.00;99.90;;;;;;4956394;28;20050;-71
2022/04/29 07:05:03;;;;;;;30.67;27.92;;;9.80;99.90;;;;;;4985260;28;20067;-70
2022/04/29 07:07:30;;;;;;;30.52;27.88;;;9.90;99.90;;;;;;4973651;28;20042;-71
2022/04/29 07:10:21;;;;;;;30.58;27.80;;;9.90;99.90;;;;;;4975950;28;20050;-71
2022/04/29 07:13:26;;;;;;;31.63;28.63;;;9.90;99.90;;;;;;4969476;28;20093;-71
2022/04/29 07:15:53;;;;;;;30.27;27.95;;;10.10;99.90;;;;;;4940268;28;20075;-71
2022/04/29 07:18:46;;;;;;;30.77;28.00;;;10.00;99.90;;;;;;4879712;28;20460;-71
2022/04/29 07:21:15;;;;;;;30.60;28.02;;;9.90;99.90;;;;;;4921284;28;20129;-70
2022/04/29 07:23:42;;;;;;;32.88;30.15;;;9.90;99.90;;;;;;4976131;28;20540;-71
2022/04/29 07:26:10;;;;;;;30.98;28.42;;;10.00;99.90;;;;;;4960277;28;20516;-71
2022/04/29 07:28:37;;;;;;;31.73;29.00;;;10.20;99.90;;;;;;4978205;28;20062;-72
2022/04/29 07:31:04;;;;;;;31.52;28.52;;;10.30;99.90;;;;;;4976311;28;20051;-71
2022/04/29 07:33:50;;;;;;;;;;;10.30;99.90;;;;;;4978813;28;20085;-71
2022/04/29 07:42:11;;;;;;;32.95;30.45;;;11.50;99.90;;;;;;4976613;28;20042;-71
2022/04/29 07:44:38;;;;;;;32.72;30.08;;;11.90;99.90;;;;;;4975727;28;20133;-69
2022/04/29 07:47:09;;;;;;;31.63;29.08;;;12.10;99.90;;;;;;4977339;28;20050;-72
2022/04/29 07:49:46;;;;;;;32.90;29.88;;;12.00;99.90;;;;;;4976535;28;20097;-71
2022/04/29 07:52:17;;;;;;;32.25;29.55;;;12.20;99.90;;;;;;4994801;23;20038;-69
2022/04/29 07:54:44;;;;;;;32.35;29.50;;;12.00;99.90;;;;;;4995687;28;20068;-70
2022/04/29 07:57:11;;;;;;;32.05;29.25;;;12.20;99.90;;;;;;5015414;28;20427;-68
2022/04/29 07:59:38;;;;;;;33.38;30.30;;;12.40;99.90;;;;;;5000722;28;20052;-68
2022/04/29 08:02:32;;;;;;;33.55;30.25;;;12.40;99.90;;;;;;4975612;28;20052;-68
2022/04/29 08:04:59;;;;;;;32.25;29.42;;;12.40;99.90;;;;;;4983092;28;20046;-69
2022/04/29 08:07:26;;;;;;;32.25;29.55;;;12.60;99.90;;;;;;5001431;28;20046;-69
2022/04/29 08:09:53;;;;;;;33.00;29.98;;;12.50;99.90;;;;;;4984117;28;20050;-68
2022/04/29 08:12:21;;;;;;;33.03;30.40;;;12.30;99.90;;;;;;4994589;28;20042;-68
2022/04/29 08:15:07;;;;;;;32.30;29.55;;;12.40;99.90;;;;;;4996501;28;20069;-69
2022/04/29 08:17:54;;;;;;;33.30;30.30;;;12.60;99.90;;;;;;4999974;28;20061;-70
2022/04/29 08:20:22;;;;;;;32.35;29.67;;;12.50;99.90;;;;;;5010147;28;20038;-68
2022/04/29 08:22:50;;;;;;;32.50;29.80;;;12.80;99.90;;;;;;5016115;28;20045;-69
2022/04/29 08:25:19;;;;;;;33.00;30.05;;;13.20;99.90;;;;;;5011456;28;20551;-68
2022/04/29 08:27:47;;;;;;;33.00;30.42;;;13.40;99.90;;;;;;5000410;28;20060;-68
2022/04/29 08:30:14;;;;;;;32.78;30.05;;;13.40;99.90;;;;;;5016900;28;20079;-68
2022/04/29 08:32:44;;;;;;;32.15;29.38;;;13.00;99.90;;;;;;4999334;28;20081;-68
2022/04/29 08:35:26;;;;;;;31.92;29.55;;;13.20;99.90;;;;;;4997587;28;20449;-69
2022/04/29 08:37:59;;;;;;;33.17;30.38;;;13.70;99.90;;;;;;4998683;28;20046;-69
2022/04/29 08:40:45;;;;;;;31.77;28.83;;;14.30;99.90;;;;;;4997781;28;20042;-67
2022/04/29 08:43:15;;;;;;;30.65;27.75;;;14.50;99.90;;;;;;5029634;28;20046;-68
2022/04/29 08:45:44;;;;;;;31.30;28.38;;;14.60;99.90;;;;;;5015603;28;20164;-70
2022/04/29 08:48:44;;;;;;;32.13;29.23;;;15.00;99.90;;;;;;5016924;28;20106;-70
2022/04/29 08:51:12;;;;;;;31.30;28.27;;;15.60;99.90;;;;;;4995538;28;20060;-69
2022/04/29 08:53:40;;;;;;;30.33;27.77;;;16.00;99.90;;;;;;5013844;28;20045;-69
2022/04/29 08:58:53;;;;;;;30.67;28.02;;;15.50;99.90;;;;;;4995923;28;20300;-67
2022/04/29 09:01:21;;;;;;;31.55;28.92;;;15.30;99.90;;;;;;4998048;28;20044;-69
2022/04/29 09:03:48;;;;;;;31.40;28.70;;;15.40;99.90;;;;;;5008289;28;20052;-69
2022/04/29 09:06:19;;;;;;;32.60;29.45;;;15.70;99.90;;;;;;5015642;28;20045;-68
2022/04/29 09:08:48;;;;;;;32.10;29.27;;;15.80;99.90;;;;;;5007523;28;20730;-67
2022/04/29 09:11:24;;;;;;;32.08;29.13;;;14.80;99.90;;;;;;4996816;28;20048;-68
2022/04/29 09:13:51;;;;;;;33.40;30.45;;;14.80;99.90;;;;;;5012957;28;20046;-69
2022/04/29 09:16:21;;;;;;;34.15;31.10;;;15.20;99.90;;;;;;4998376;28;20054;-68
2022/04/29 09:18:55;;;;;;;32.78;30.20;;;15.50;99.90;;;;;;5000395;28;20061;-68
2022/04/29 09:21:31;;;;;;;32.97;30.20;;;15.70;99.90;;;;;;4993906;28;20054;-69
2022/04/29 09:24:03;;;;;;;32.72;29.65;;;15.80;99.90;;;;;;4987108;28;20046;-70
2022/04/29 09:27:02;;;;;;;33.83;30.73;;;15.30;99.90;;;;;;5007906;28;20037;-68
2022/04/29 09:29:29;;;;;;;36.80;33.63;;;15.30;99.90;;;;;;5016433;28;20064;-68
2022/04/29 09:32:03;;;;;;;32.70;30.25;;;15.10;99.90;;;;;;5014255;28;20049;-68
2022/04/29 09:34:54;;;;;;;36.33;32.80;;;15.60;99.90;;;;;;4998353;28;20061;-68
2022/04/29 09:37:24;;;;;;;31.35;28.88;;;15.80;99.90;;;;;;4996842;28;20129;-69
2022/04/29 09:40:00;;;;;;;33.25;30.63;;;15.00;99.90;;;;;;5015033;28;20510;-68
2022/04/29 09:42:45;;;;;;;33.78;30.92;;;15.10;99.90;;;;;;5010517;28;20064;-69
2022/04/29 09:45:23;;;;;;;35.45;32.33;;;15.50;99.90;;;;;;5010237;28;20096;-67
2022/04/29 09:47:54;;;;;;;34.83;31.88;;;15.90;99.90;;;;;;5014192;28;20499;-68
2022/04/29 09:50:21;;;;;;;36.70;33.70;;;16.40;99.90;;;;;;5011795;28;20051;-68
2022/04/29 09:52:49;;;;;;;37.45;34.08;;;16.70;99.90;;;;;;4995580;28;20604;-67
2022/04/29 09:55:19;;;;;;;36.42;32.72;;;16.80;99.90;;;;;;5002606;28;20530;-68
2022/04/29 09:57:52;;;;;;;35.42;32.38;;;17.30;99.90;;;;;;5012919;28;20052;-67
2022/04/29 10:00:19;;;;;;;35.08;31.63;;;17.70;99.90;;;;;;5013050;28;20053;-67
2022/04/29 10:02:49;;;;;;;34.50;31.40;;;18.10;99.90;;;;;;5015654;28;20140;-68
2022/04/29 10:05:18;;;;;;;35.42;32.20;;;17.90;99.90;;;;;;5001367;28;20053;-67
2022/04/29 10:07:59;;;;;;;36.28;32.80;;;18.00;99.90;;;;;;4995184;28;20282;-68
2022/04/29 10:10:30;;;;;;;35.10;32.00;;;18.10;99.90;;;;;;4994817;28;20042;-68
2022/04/29 10:12:59;;;;;;;35.08;31.85;;;18.00;99.90;;;;;;4992172;28;20080;-68
2022/04/29 10:15:35;;;;;;;34.92;32.25;;;18.30;99.90;;;;;;5002733;28;20065;-68
2022/04/29 10:21:45;;;;;;;34.72;31.73;;;18.10;99.90;;;;;;4992408;28;20049;-68
2022/04/29 10:24:12;;;;;;;37.97;34.08;;;17.30;99.90;;;;;;4998202;28;20057;-69
2022/04/29 10:26:39;;;;;;;37.25;34.05;;;17.60;99.90;;;;;;5006296;28;20048;-69
2022/04/29 10:29:07;;;;;;;36.67;33.42;;;17.70;99.90;;;;;;4998754;28;20053;-68
2022/04/29 10:31:34;;;;;;;35.53;32.00;;;17.60;99.90;;;;;;5012637;28;20049;-68
2022/04/29 10:34:29;;;;;;;37.42;34.10;;;17.80;99.90;;;;;;5013787;28;20053;-68
2022/04/29 10:36:57;;;;;;;37.40;34.25;;;17.70;99.90;;;;;;4998448;28;20057;-68
2022/04/29 10:39:25;;;;;;;38.35;34.80;;;16.90;99.90;;;;;;4995842;28;20038;-67
2022/04/29 10:42:02;;;;;;;35.78;32.55;;;16.10;99.90;;;;;;4994223;28;20121;-69
2022/04/29 10:44:31;;;;;;;35.45;32.55;;;16.20;99.90;;;;;;4999039;28;20037;-68
2022/04/29 10:47:42;;;;;;;37.13;33.65;;;17.10;99.90;;;;;;4993831;28;20160;-68
2022/04/29 10:50:29;;;;;;;36.35;33.22;;;17.70;99.90;;;;;;5004224;28;20730;-68
2022/04/29 10:53:40;;;;;;;37.58;34.38;;;17.90;99.90;;;;;;4970740;28;20181;-69
2022/04/29 10:56:36;;;;;;;40.53;36.85;;;18.40;99.90;;;;;;4983048;28;20041;-68
2022/04/29 10:59:03;;;;;;;39.28;35.88;;;18.20;99.90;;;;;;4988048;28;20049;-67
2022/04/29 11:01:34;;;;;;;40.55;37.08;;;18.40;99.90;;;;;;4992542;28;20053;-68
2022/04/29 11:04:03;;;;;;;39.45;35.63;;;18.40;99.90;;;;;;4993185;28;20068;-69
2022/04/29 11:06:41;;;;;;;38.38;35.30;;;18.70;99.90;;;;;;4993943;28;20070;-69
2022/04/29 11:09:35;;;;;;;39.45;36.15;;;18.90;99.90;;;;;;4979250;28;20053;-69
2022/04/29 11:12:03;;;;;;;41.35;37.83;;;18.90;99.90;;;;;;4997209;28;20718;-68
2022/04/29 11:15:21;;;;;;;40.67;37.00;;;18.40;99.90;;;;;;5012845;28;20080;-68
2022/04/29 11:18:23;;;;;;;42.67;38.72;;;18.70;99.90;;;;;;5008853;28;20093;-69
2022/04/29 11:20:59;;;;;;;41.33;37.83;;;18.70;99.90;;;;;;4999639;28;20076;-70
2022/04/29 11:26:17;;;;;;;41.88;38.15;;;18.10;99.90;;;;;;4993537;28;20034;-69
2022/04/29 11:28:54;;;;;;;42.70;39.00;;;18.30;99.90;;;;;;4993973;28;20062;-68
2022/04/29 11:31:44;;;;;;;41.35;37.92;;;18.60;99.90;;;;;;4987758;28;20117;-69
2022/04/29 11:34:13;;;;;;;42.28;38.75;;;19.20;99.90;;;;;;4994776;28;20108;-69
2022/04/29 11:36:42;;;;;;;41.13;37.20;;;19.30;99.90;;;;;;5012197;28;20049;-69
2022/04/29 11:39:17;;;;;;;41.65;38.33;;;19.40;99.90;;;;;;4995879;28;20053;-68
2022/04/29 11:41:57;;;;;;;41.05;36.75;;;19.60;99.90;;;;;;4995500;28;20123;-69
2022/04/29 11:44:34;;;;;;;40.58;36.97;;;19.60;99.90;;;;;;4993836;28;20046;-69
2022/04/29 11:47:02;;;;;;;40.33;36.90;;;19.60;99.90;;;;;;4992003;28;20049;-68
2022/04/29 11:49:32;;;;;;;41.17;37.53;;;19.70;99.90;;;;;;4985063;28;20538;-69
2022/04/29 11:52:22;;;;;;;42.65;38.88;;;19.70;99.90;;;;;;5008817;28;20041;-69
2022/04/29 11:55:00;;;;;;;39.50;36.03;;;19.30;99.90;;;;;;4992859;28;20058;-71
2022/04/29 11:57:33;;;;;;;41.10;37.50;;;19.20;99.90;;;;;;4998385;28;20064;-71
2022/04/29 12:00:03;;;;;;;41.55;37.92;;;19.30;99.90;;;;;;4993535;28;20156;-70
2022/04/29 12:02:45;;;;;;;40.50;37.13;;;19.50;99.90;;;;;;4993722;28;20121;-71
2022/04/29 12:05:14;;;;;;;42.08;38.65;;;19.70;99.90;;;;;;4994316;28;20411;-71
2022/04/29 12:07:44;;;;;;;41.78;37.83;;;19.80;99.90;;;;;;4997260;28;20038;-70
2022/04/29 12:10:28;;;;;;;38.42;35.28;;;19.80;99.90;;;;;;4997969;28;20066;-71
2022/04/29 12:13:03;;;;;;;38.70;35.28;;;19.50;99.90;;;;;;5007929;28;20063;-70
2022/04/29 12:15:35;;;;;;;40.22;36.75;;;19.10;99.90;;;;;;4995284;28;20211;-71
2022/04/29 12:18:08;;;;;;;40.08;36.63;;;19.10;99.90;;;;;;4998981;28;20050;-70
2022/04/29 12:20:56;;;;;;;41.10;37.72;;;19.00;99.90;;;;;;4997441;28;20145;-73
2022/04/29 12:23:24;;;;;;;41.03;37.42;;;19.00;99.90;;;;;;4991786;28;20403;-71
2022/04/29 12:25:52;;;;;;;42.30;38.17;;;18.90;99.90;;;;;;4997242;28;20046;-70
2022/04/29 12:28:26;;;;;;;43.50;39.20;;;18.70;99.90;;;;;;5014446;28;20063;-71
2022/04/29 12:36:58;;;;;;;40.13;36.45;;;18.40;99.90;;;;;;5014973;28;20175;-71
2022/04/29 12:39:35;;;;;;;42.28;38.72;;;18.50;99.90;;;;;;5001330;28;20566;-70
2022/04/29 12:42:06;;;;;;;40.13;36.40;;;18.40;99.90;;;;;;5010047;28;20065;-70
2022/04/29 12:48:01;;;;;;;43.63;40.17;;;18.30;99.90;;;;;;4996863;28;20140;-70
2022/04/29 12:50:37;;;;;;;44.38;40.55;;;18.60;99.90;;;;;;5014042;28;20069;-71
2022/04/29 12:53:13;;;;;;;45.65;41.72;;;18.20;99.90;;;;;;4995574;28;20042;-72
2022/04/29 12:55:43;;;;;;;44.22;40.60;;;18.30;99.90;;;;;;4985430;28;20627;-70
2022/04/29 12:58:17;;;;;;;42.00;38.80;;;18.60;99.90;;;;;;5000832;28;20045;-73
2022/04/29 13:00:54;;;;;;;43.37;40.03;;;18.60;99.90;;;;;;4993646;28;20236;-72
2022/04/29 13:03:30;;;;;;;41.28;37.72;;;18.70;99.90;;;;;;4994725;28;20288;-71
2022/04/29 13:06:13;;;;;;;41.38;38.00;;;18.80;99.90;;;;;;4994436;28;20171;-71
2022/04/29 13:08:41;;;;;;;40.72;37.33;;;18.60;99.90;;;;;;4993988;28;20041;-73
2022/04/29 13:11:15;;;;;;;41.75;38.05;;;18.60;99.90;;;;;;4994694;28;20140;-72
2022/04/29 13:13:42;;;;;;;39.75;36.42;;;18.60;99.90;;;;;;4995191;28;20056;-71
2022/04/29 13:16:09;;;;;;;41.88;37.67;;;18.40;99.90;;;;;;4995712;28;20132;-72
2022/04/29 13:18:38;;;;;;;41.03;37.05;;;18.10;99.90;;;;;;5010520;28;20868;-72
2022/04/29 13:21:07;;;;;;;44.13;39.22;;;18.00;99.90;;;;;;5013634;28;20465;-73
2022/04/29 13:23:38;;;;;;;40.75;37.33;;;17.80;99.90;;;;;;4991839;28;20042;-70
2022/04/29 13:26:10;;;;;;;40.97;36.97;;;17.50;99.90;;;;;;5031027;28;20064;-71
2022/04/29 13:28:37;;;;;;;41.60;37.55;;;17.50;99.90;;;;;;5008928;28;20061;-70
2022/04/29 13:31:05;;;;;;;44.33;40.15;;;17.60;99.90;;;;;;5014391;28;20049;-70
2022/04/29 13:33:33;;;;;;;42.42;38.92;;;17.80;99.90;;;;;;5015091;28;20057;-70
2022/04/29 13:36:02;;;;;;;41.20;37.67;;;17.50;99.90;;;;;;5015470;28;20127;-70
2022/04/29 13:38:29;;;;;;;41.45;37.30;;;17.30;99.90;;;;;;4993624;28;20057;-70